Lipetsk, Russia
Current Conditions -  °F | °C
As of 9:00 AM on Saturday 01 Nov 2014 (Local Time) from UUOO Reporting Station
Overcast Overcast  
Wind Chill: 25°   Ceiling: 1000
Heat Index: 34°   Visibility: 5mi
Dew Point: 30°   Wind: 11mph
Humidity: 87%   Direction: 350°N
Pressure: 29.97"   Gusts: NA
Location:  52.62°N, 39.62°E
Report Text: UUOO 010600Z 35005MPS 8000 OVC010 01/M01 Q1015 NOSIG RMK30290155
Loading
Personal Weather Stations






























Interactive Weather Map
Tropical Storm Tracking
New forecast layout! Learn more

10-Day Weather Forecast

Advertisements
Track Severe Weather on mobile